sensor_id;sensor_type;location;lat;lon;timestamp;P1;durP1;ratioP1;P2;durP2;ratioP2
65651;SDS011;52350;51.546;7.002;2022-10-31T09:19:10;50.88;;;21.55;;
65651;SDS011;52350;51.546;7.002;2022-10-31T09:21:35;58.63;;;23.13;;
65651;SDS011;52350;51.546;7.002;2022-10-31T09:24:01;50.50;;;20.95;;
65651;SDS011;52350;51.546;7.002;2022-10-31T09:26:26;52.40;;;20.15;;
65651;SDS011;52350;51.546;7.002;2022-10-31T09:28:53;42.17;;;19.55;;
65651;SDS011;52350;51.546;7.002;2022-10-31T09:31:18;45.05;;;18.75;;
65651;SDS011;52350;51.546;7.002;2022-10-31T09:33:44;45.55;;;19.17;;
65651;SDS011;52350;51.546;7.002;2022-10-31T09:36:09;50.15;;;19.35;;
65651;SDS011;52350;51.546;7.002;2022-10-31T09:38:35;45.17;;;19.05;;
65651;SDS011;52350;51.546;7.002;2022-10-31T09:52:41;45.70;;;18.02;;
65651;SDS011;52350;51.546;7.002;2022-10-31T09:55:42;38.83;;;16.33;;
65651;SDS011;52350;51.546;7.002;2022-10-31T09:58:16;39.72;;;17.02;;
65651;SDS011;52350;51.546;7.002;2022-10-31T10:00:51;56.75;;;19.42;;
65651;SDS011;52350;51.546;7.002;2022-10-31T10:03:28;46.90;;;18.87;;
65651;SDS011;52350;51.546;7.002;2022-10-31T10:06:18;48.55;;;17.40;;
65651;SDS011;52350;51.546;7.002;2022-10-31T10:08:53;57.83;;;21.75;;
65651;SDS011;52350;51.546;7.002;2022-10-31T10:25:55;54.00;;;20.88;;
65651;SDS011;52350;51.546;7.002;2022-10-31T10:28:43;53.22;;;19.10;;
65651;SDS011;52350;51.546;7.002;2022-10-31T10:31:14;51.05;;;18.65;;
65651;SDS011;52350;51.546;7.002;2022-10-31T10:36:56;47.17;;;18.50;;
65651;SDS011;52350;51.546;7.002;2022-10-31T10:39:47;52.47;;;18.23;;
65651;SDS011;52350;51.546;7.002;2022-10-31T10:42:20;58.05;;;20.25;;
65651;SDS011;52350;51.546;7.002;2022-10-31T10:45:13;43.20;;;18.80;;
65651;SDS011;52350;51.546;7.002;2022-10-31T10:48:06;55.47;;;19.42;;
65651;SDS011;52350;51.546;7.002;2022-10-31T10:50:54;51.42;;;19.40;;
65651;SDS011;52350;51.546;7.002;2022-10-31T11:01:14;53.13;;;18.70;;
65651;SDS011;52350;51.546;7.002;2022-10-31T11:04:43;47.35;;;17.25;;
65651;SDS011;52350;51.546;7.002;2022-10-31T11:11:59;49.60;;;17.35;;
65651;SDS011;52350;51.546;7.002;2022-10-31T11:15:39;41.70;;;17.88;;
65651;SDS011;52350;51.546;7.002;2022-10-31T11:19:26;51.28;;;18.08;;
65651;SDS011;52350;51.546;7.002;2022-10-31T11:23:17;42.83;;;17.58;;
65651;SDS011;52350;51.546;7.002;2022-10-31T11:27:02;61.83;;;20.08;;
65651;SDS011;52350;51.546;7.002;2022-10-31T11:30:50;44.40;;;16.58;;
65651;SDS011;52350;51.546;7.002;2022-10-31T11:34:35;39.83;;;16.98;;
65651;SDS011;52350;51.546;7.002;2022-10-31T11:38:14;47.10;;;17.23;;
65651;SDS011;52350;51.546;7.002;2022-10-31T11:41:50;44.70;;;18.10;;
65651;SDS011;52350;51.546;7.002;2022-10-31T11:45:32;41.13;;;17.00;;
65651;SDS011;52350;51.546;7.002;2022-10-31T11:49:12;39.50;;;16.50;;
65651;SDS011;52350;51.546;7.002;2022-10-31T11:52:46;46.05;;;17.23;;
65651;SDS011;52350;51.546;7.002;2022-10-31T11:56:21;43.67;;;16.13;;
65651;SDS011;52350;51.546;7.002;2022-10-31T11:59:57;41.83;;;16.70;;
65651;SDS011;52350;51.546;7.002;2022-10-31T12:07:05;51.58;;;16.45;;
65651;SDS011;52350;51.546;7.002;2022-10-31T12:10:51;43.35;;;16.38;;
65651;SDS011;52350;51.546;7.002;2022-10-31T12:18:32;50.70;;;16.55;;
65651;SDS011;52350;51.546;7.002;2022-10-31T12:25:51;44.05;;;17.05;;
65651;SDS011;52350;51.546;7.002;2022-10-31T12:29:31;40.95;;;15.77;;
65651;SDS011;52350;51.546;7.002;2022-10-31T12:48:23;46.38;;;15.63;;
65651;SDS011;52350;51.546;7.002;2022-10-31T13:00:20;46.35;;;16.15;;
65651;SDS011;52350;51.546;7.002;2022-10-31T13:07:44;38.25;;;14.60;;
65651;SDS011;52350;51.546;7.002;2022-10-31T13:11:32;45.47;;;14.93;;
65651;SDS011;52350;51.546;7.002;2022-10-31T13:15:27;44.90;;;16.23;;
65651;SDS011;52350;51.546;7.002;2022-10-31T13:19:07;48.85;;;15.65;;
65651;SDS011;52350;51.546;7.002;2022-10-31T13:22:44;49.00;;;16.27;;
65651;SDS011;52350;51.546;7.002;2022-10-31T13:26:42;43.55;;;14.73;;
65651;SDS011;52350;51.546;7.002;2022-10-31T13:30:16;39.97;;;14.93;;
65651;SDS011;52350;51.546;7.002;2022-10-31T13:33:58;36.15;;;13.60;;
65651;SDS011;52350;51.546;7.002;2022-10-31T13:37:36;38.40;;;15.02;;
65651;SDS011;52350;51.546;7.002;2022-10-31T13:45:06;49.38;;;13.93;;
65651;SDS011;52350;51.546;7.002;2022-10-31T13:48:41;38.05;;;15.18;;
65651;SDS011;52350;51.546;7.002;2022-10-31T13:52:21;32.20;;;13.75;;
65651;SDS011;52350;51.546;7.002;2022-10-31T13:56:12;42.08;;;14.05;;
65651;SDS011;52350;51.546;7.002;2022-10-31T13:59:52;47.58;;;15.38;;
65651;SDS011;52350;51.546;7.002;2022-10-31T14:03:27;40.03;;;15.63;;
65651;SDS011;52350;51.546;7.002;2022-10-31T14:07:17;38.67;;;13.70;;
65651;SDS011;52350;51.546;7.002;2022-10-31T14:10:52;38.03;;;13.73;;
65651;SDS011;52350;51.546;7.002;2022-10-31T14:14:35;34.67;;;13.20;;
65651;SDS011;52350;51.546;7.002;2022-10-31T14:18:21;35.20;;;13.35;;
65651;SDS011;52350;51.546;7.002;2022-10-31T14:21:56;32.90;;;12.70;;
65651;SDS011;52350;51.546;7.002;2022-10-31T14:25:32;34.50;;;13.90;;
65651;SDS011;52350;51.546;7.002;2022-10-31T14:36:25;37.63;;;13.55;;
65651;SDS011;52350;51.546;7.002;2022-10-31T14:51:10;32.88;;;12.75;;
65651;SDS011;52350;51.546;7.002;2022-10-31T14:54:49;39.10;;;13.55;;
65651;SDS011;52350;51.546;7.002;2022-10-31T14:58:31;35.75;;;13.70;;
65651;SDS011;52350;51.546;7.002;2022-10-31T15:02:23;33.92;;;12.98;;
65651;SDS011;52350;51.546;7.002;2022-10-31T15:06:00;30.50;;;10.97;;
65651;SDS011;52350;51.546;7.002;2022-10-31T15:09:36;30.50;;;11.85;;
65651;SDS011;52350;51.546;7.002;2022-10-31T15:13:18;34.40;;;13.00;;
65651;SDS011;52350;51.546;7.002;2022-10-31T15:16:53;35.17;;;12.52;;
65651;SDS011;52350;51.546;7.002;2022-10-31T15:20:28;41.13;;;13.00;;
65651;SDS011;52350;51.546;7.002;2022-10-31T15:24:03;33.15;;;12.02;;
65651;SDS011;52350;51.546;7.002;2022-10-31T15:27:37;37.13;;;14.13;;
65651;SDS011;52350;51.546;7.002;2022-10-31T15:31:17;34.65;;;13.23;;
65651;SDS011;52350;51.546;7.002;2022-10-31T15:34:52;36.75;;;13.60;;
65651;SDS011;52350;51.546;7.002;2022-10-31T15:38:27;28.77;;;12.25;;
65651;SDS011;52350;51.546;7.002;2022-10-31T15:42:01;34.90;;;12.80;;
65651;SDS011;52350;51.546;7.002;2022-10-31T15:45:36;33.53;;;13.13;;
65651;SDS011;52350;51.546;7.002;2022-10-31T15:49:14;36.08;;;13.88;;
65651;SDS011;52350;51.546;7.002;2022-10-31T15:52:53;36.95;;;12.88;;
65651;SDS011;52350;51.546;7.002;2022-10-31T15:56:30;33.85;;;13.18;;
65651;SDS011;52350;51.546;7.002;2022-10-31T16:00:06;34.17;;;13.52;;
65651;SDS011;52350;51.546;7.002;2022-10-31T16:03:40;39.50;;;14.45;;
65651;SDS011;52350;51.546;7.002;2022-10-31T16:07:15;39.70;;;13.32;;
65651;SDS011;52350;51.546;7.002;2022-10-31T16:10:50;37.17;;;13.77;;
65651;SDS011;52350;51.546;7.002;2022-10-31T16:14:38;28.88;;;12.40;;
65651;SDS011;52350;51.546;7.002;2022-10-31T16:18:13;35.20;;;13.38;;
65651;SDS011;52350;51.546;7.002;2022-10-31T16:21:48;37.03;;;13.98;;
65651;SDS011;52350;51.546;7.002;2022-10-31T16:25:25;35.75;;;13.20;;
65651;SDS011;52350;51.546;7.002;2022-10-31T16:29:00;44.35;;;14.50;;
65651;SDS011;52350;51.546;7.002;2022-10-31T16:32:36;32.88;;;14.10;;
65651;SDS011;52350;51.546;7.002;2022-10-31T16:40:07;37.20;;;12.35;;
65651;SDS011;52350;51.546;7.002;2022-10-31T16:43:42;33.63;;;14.05;;
65651;SDS011;52350;51.546;7.002;2022-10-31T16:47:16;33.22;;;14.30;;
65651;SDS011;52350;51.546;7.002;2022-10-31T16:50:51;38.00;;;13.98;;
65651;SDS011;52350;51.546;7.002;2022-10-31T16:54:28;34.30;;;13.82;;
65651;SDS011;52350;51.546;7.002;2022-10-31T16:58:02;37.67;;;14.43;;
65651;SDS011;52350;51.546;7.002;2022-10-31T17:01:37;37.20;;;15.07;;
65651;SDS011;52350;51.546;7.002;2022-10-31T17:05:13;41.42;;;15.60;;
65651;SDS011;52350;51.546;7.002;2022-10-31T17:08:48;41.00;;;13.30;;
65651;SDS011;52350;51.546;7.002;2022-10-31T17:12:22;44.70;;;14.55;;
65651;SDS011;52350;51.546;7.002;2022-10-31T17:15:59;44.58;;;16.35;;
65651;SDS011;52350;51.546;7.002;2022-10-31T17:19:34;40.45;;;15.75;;
65651;SDS011;52350;51.546;7.002;2022-10-31T17:23:09;33.88;;;15.45;;
65651;SDS011;52350;51.546;7.002;2022-10-31T17:26:44;46.10;;;15.38;;
65651;SDS011;52350;51.546;7.002;2022-10-31T17:30:19;40.83;;;14.75;;
65651;SDS011;52350;51.546;7.002;2022-10-31T17:33:54;32.28;;;13.32;;
65651;SDS011;52350;51.546;7.002;2022-10-31T17:37:28;47.28;;;14.93;;
65651;SDS011;52350;51.546;7.002;2022-10-31T17:41:06;39.38;;;14.65;;
65651;SDS011;52350;51.546;7.002;2022-10-31T17:44:40;34.47;;;14.15;;
65651;SDS011;52350;51.546;7.002;2022-10-31T17:48:15;34.08;;;14.93;;
65651;SDS011;52350;51.546;7.002;2022-10-31T17:51:49;41.17;;;14.18;;
65651;SDS011;52350;51.546;7.002;2022-10-31T17:55:23;38.75;;;14.07;;
65651;SDS011;52350;51.546;7.002;2022-10-31T17:58:58;47.33;;;15.05;;
65651;SDS011;52350;51.546;7.002;2022-10-31T18:02:32;46.38;;;15.15;;
65651;SDS011;52350;51.546;7.002;2022-10-31T18:06:07;43.55;;;15.82;;
65651;SDS011;52350;51.546;7.002;2022-10-31T18:09:43;53.80;;;18.60;;
65651;SDS011;52350;51.546;7.002;2022-10-31T18:13:17;64.65;;;17.25;;
65651;SDS011;52350;51.546;7.002;2022-10-31T18:16:53;60.83;;;16.35;;
65651;SDS011;52350;51.546;7.002;2022-10-31T18:20:28;54.47;;;16.77;;
65651;SDS011;52350;51.546;7.002;2022-10-31T18:24:03;55.00;;;17.15;;
65651;SDS011;52350;51.546;7.002;2022-10-31T18:27:37;93.85;;;19.92;;
65651;SDS011;52350;51.546;7.002;2022-10-31T18:31:11;80.07;;;18.13;;
65651;SDS011;52350;51.546;7.002;2022-10-31T18:34:46;88.22;;;19.02;;
65651;SDS011;52350;51.546;7.002;2022-10-31T18:38:20;78.35;;;17.08;;
65651;SDS011;52350;51.546;7.002;2022-10-31T18:41:55;59.65;;;16.98;;
65651;SDS011;52350;51.546;7.002;2022-10-31T18:45:30;80.35;;;19.65;;
65651;SDS011;52350;51.546;7.002;2022-10-31T18:49:04;58.97;;;16.42;;
65651;SDS011;52350;51.546;7.002;2022-10-31T18:52:38;67.32;;;16.92;;
65651;SDS011;52350;51.546;7.002;2022-10-31T18:56:14;99.20;;;20.13;;
65651;SDS011;52350;51.546;7.002;2022-10-31T18:59:49;75.28;;;18.38;;
65651;SDS011;52350;51.546;7.002;2022-10-31T19:03:23;88.45;;;19.45;;
65651;SDS011;52350;51.546;7.002;2022-10-31T19:06:57;57.97;;;16.98;;
65651;SDS011;52350;51.546;7.002;2022-10-31T19:10:36;57.55;;;14.85;;
65651;SDS011;52350;51.546;7.002;2022-10-31T19:14:11;43.10;;;14.48;;
65651;SDS011;52350;51.546;7.002;2022-10-31T19:17:46;60.78;;;15.93;;
65651;SDS011;52350;51.546;7.002;2022-10-31T19:21:20;60.03;;;15.65;;
65651;SDS011;52350;51.546;7.002;2022-10-31T19:24:55;35.22;;;14.00;;
65651;SDS011;52350;51.546;7.002;2022-10-31T19:28:30;35.53;;;13.38;;
65651;SDS011;52350;51.546;7.002;2022-10-31T19:32:06;44.80;;;12.90;;
65651;SDS011;52350;51.546;7.002;2022-10-31T19:35:40;35.65;;;12.20;;
65651;SDS011;52350;51.546;7.002;2022-10-31T19:39:15;34.22;;;11.85;;
65651;SDS011;52350;51.546;7.002;2022-10-31T19:42:49;32.72;;;10.35;;
65651;SDS011;52350;51.546;7.002;2022-10-31T19:46:23;28.77;;;9.73;;
65651;SDS011;52350;51.546;7.002;2022-10-31T19:49:58;22.83;;;9.43;;
65651;SDS011;52350;51.546;7.002;2022-10-31T19:53:32;28.25;;;9.20;;
65651;SDS011;52350;51.546;7.002;2022-10-31T19:57:07;20.05;;;8.15;;
65651;SDS011;52350;51.546;7.002;2022-10-31T20:00:41;25.65;;;8.68;;
65651;SDS011;52350;51.546;7.002;2022-10-31T20:04:15;22.58;;;8.20;;
65651;SDS011;52350;51.546;7.002;2022-10-31T20:07:50;24.27;;;8.57;;
65651;SDS011;52350;51.546;7.002;2022-10-31T20:11:25;21.45;;;8.52;;
65651;SDS011;52350;51.546;7.002;2022-10-31T20:15:02;22.45;;;8.27;;
65651;SDS011;52350;51.546;7.002;2022-10-31T20:18:37;20.38;;;8.27;;
65651;SDS011;52350;51.546;7.002;2022-10-31T20:22:11;19.50;;;8.23;;
65651;SDS011;52350;51.546;7.002;2022-10-31T20:25:49;20.67;;;8.00;;
65651;SDS011;52350;51.546;7.002;2022-10-31T20:29:23;20.23;;;8.45;;
65651;SDS011;52350;51.546;7.002;2022-10-31T20:32:58;19.52;;;8.40;;
65651;SDS011;52350;51.546;7.002;2022-10-31T20:36:32;19.02;;;7.05;;
65651;SDS011;52350;51.546;7.002;2022-10-31T20:40:07;21.95;;;7.78;;
65651;SDS011;52350;51.546;7.002;2022-10-31T20:43:41;20.88;;;7.45;;
65651;SDS011;52350;51.546;7.002;2022-10-31T20:47:16;20.63;;;7.72;;
65651;SDS011;52350;51.546;7.002;2022-10-31T20:50:54;23.10;;;8.20;;
65651;SDS011;52350;51.546;7.002;2022-10-31T20:54:29;19.42;;;7.10;;
65651;SDS011;52350;51.546;7.002;2022-10-31T20:58:03;20.27;;;7.18;;
65651;SDS011;52350;51.546;7.002;2022-10-31T21:01:39;16.73;;;7.30;;
65651;SDS011;52350;51.546;7.002;2022-10-31T21:05:13;15.73;;;7.47;;
65651;SDS011;52350;51.546;7.002;2022-10-31T21:08:48;24.48;;;7.47;;
65651;SDS011;52350;51.546;7.002;2022-10-31T21:12:22;21.60;;;7.90;;
65651;SDS011;52350;51.546;7.002;2022-10-31T21:16:00;20.40;;;7.32;;
65651;SDS011;52350;51.546;7.002;2022-10-31T21:19:35;21.70;;;8.10;;
65651;SDS011;52350;51.546;7.002;2022-10-31T21:23:10;24.77;;;8.35;;
65651;SDS011;52350;51.546;7.002;2022-10-31T21:26:46;25.75;;;8.90;;
65651;SDS011;52350;51.546;7.002;2022-10-31T21:30:21;22.42;;;7.85;;
65651;SDS011;52350;51.546;7.002;2022-10-31T21:33:55;17.92;;;7.55;;
65651;SDS011;52350;51.546;7.002;2022-10-31T21:37:29;21.70;;;8.70;;
65651;SDS011;52350;51.546;7.002;2022-10-31T21:41:11;23.23;;;8.85;;
65651;SDS011;52350;51.546;7.002;2022-10-31T21:44:47;20.08;;;8.38;;
65651;SDS011;52350;51.546;7.002;2022-10-31T21:48:22;16.05;;;7.45;;
65651;SDS011;52350;51.546;7.002;2022-10-31T21:51:56;18.25;;;7.93;;
65651;SDS011;52350;51.546;7.002;2022-10-31T21:55:50;21.25;;;8.73;;
65651;SDS011;52350;51.546;7.002;2022-10-31T21:59:25;16.90;;;8.07;;
65651;SDS011;52350;51.546;7.002;2022-10-31T22:02:59;16.23;;;7.30;;
65651;SDS011;52350;51.546;7.002;2022-10-31T22:06:34;26.33;;;8.73;;
65651;SDS011;52350;51.546;7.002;2022-10-31T22:10:08;19.88;;;9.23;;
65651;SDS011;52350;51.546;7.002;2022-10-31T22:13:44;24.17;;;9.40;;
65651;SDS011;52350;51.546;7.002;2022-10-31T22:17:18;24.00;;;9.00;;
65651;SDS011;52350;51.546;7.002;2022-10-31T22:20:53;21.20;;;8.98;;
65651;SDS011;52350;51.546;7.002;2022-10-31T22:24:27;27.45;;;8.63;;
65651;SDS011;52350;51.546;7.002;2022-10-31T22:28:02;20.63;;;8.70;;
65651;SDS011;52350;51.546;7.002;2022-10-31T22:31:37;20.80;;;9.50;;
65651;SDS011;52350;51.546;7.002;2022-10-31T22:35:12;20.55;;;9.05;;
65651;SDS011;52350;51.546;7.002;2022-10-31T22:38:46;27.15;;;8.63;;
65651;SDS011;52350;51.546;7.002;2022-10-31T22:42:20;13.82;;;6.55;;
65651;SDS011;52350;51.546;7.002;2022-10-31T22:45:55;16.75;;;5.80;;
65651;SDS011;52350;51.546;7.002;2022-10-31T22:49:30;14.57;;;5.38;;
65651;SDS011;52350;51.546;7.002;2022-10-31T22:53:04;14.57;;;6.00;;
65651;SDS011;52350;51.546;7.002;2022-10-31T22:56:38;18.23;;;6.07;;
65651;SDS011;52350;51.546;7.002;2022-10-31T23:00:13;15.85;;;6.20;;
65651;SDS011;52350;51.546;7.002;2022-10-31T23:03:48;20.48;;;6.45;;
65651;SDS011;52350;51.546;7.002;2022-10-31T23:07:22;15.90;;;6.22;;
65651;SDS011;52350;51.546;7.002;2022-10-31T23:10:56;18.88;;;5.97;;
65651;SDS011;52350;51.546;7.002;2022-10-31T23:14:49;18.65;;;5.40;;
65651;SDS011;52350;51.546;7.002;2022-10-31T23:18:24;19.25;;;6.15;;
65651;SDS011;52350;51.546;7.002;2022-10-31T23:22:00;26.50;;;5.80;;
65651;SDS011;52350;51.546;7.002;2022-10-31T23:25:35;18.73;;;4.93;;
65651;SDS011;52350;51.546;7.002;2022-10-31T23:29:28;17.83;;;4.93;;
65651;SDS011;52350;51.546;7.002;2022-10-31T23:33:02;17.55;;;5.10;;
65651;SDS011;52350;51.546;7.002;2022-10-31T23:36:36;23.48;;;6.40;;
65651;SDS011;52350;51.546;7.002;2022-10-31T23:40:11;24.50;;;5.40;;
65651;SDS011;52350;51.546;7.002;2022-10-31T23:43:47;20.38;;;5.40;;
65651;SDS011;52350;51.546;7.002;2022-10-31T23:47:21;18.63;;;5.82;;
65651;SDS011;52350;51.546;7.002;2022-10-31T23:50:56;21.77;;;5.40;;
65651;SDS011;52350;51.546;7.002;2022-10-31T23:54:31;13.77;;;5.32;;
65651;SDS011;52350;51.546;7.002;2022-10-31T23:58:05;14.40;;;5.10;;
